createdAt,value
2019-04-14T00:02:36.797Z,27.73
2019-04-14T00:05:08.560Z,27.00
2019-04-14T00:07:38.485Z,27.40
2019-04-14T00:10:09.799Z,27.60
2019-04-14T00:12:39.103Z,26.67
2019-04-14T00:15:21.160Z,27.03
2019-04-14T00:17:41.299Z,25.20
2019-04-14T00:20:11.870Z,27.07
2019-04-14T00:22:42.440Z,26.90
2019-04-14T00:25:12.999Z,26.13
2019-04-14T00:27:43.208Z,25.20
2019-04-14T00:30:14.433Z,27.23
2019-04-14T00:32:48.788Z,28.07
2019-04-14T00:35:30.479Z,27.53
2019-04-14T00:38:21.847Z,27.07
2019-04-14T00:41:16.426Z,28.90
2019-04-14T00:44:21.033Z,27.37
2019-04-14T00:46:54.102Z,27.30
2019-04-14T00:49:24.625Z,27.43
2019-04-14T00:51:54.982Z,28.73
2019-04-14T00:54:24.431Z,28.80
2019-04-14T00:56:54.198Z,27.03
2019-04-14T00:59:24.715Z,27.60
2019-04-14T01:01:54.796Z,28.40
2019-04-14T01:04:25.119Z,29.37
2019-04-14T01:06:55.503Z,27.57
2019-04-14T01:09:26.090Z,27.97
2019-04-14T01:11:55.953Z,28.13
2019-04-14T01:14:25.568Z,26.73
2019-04-14T01:16:55.854Z,27.90
2019-04-14T01:19:25.158Z,28.50
2019-04-14T01:21:55.320Z,29.63
2019-04-14T01:24:24.980Z,27.67
2019-04-14T01:26:55.042Z,25.50
2019-04-14T01:29:25.504Z,27.53
2019-04-14T01:31:55.801Z,26.93
2019-04-14T01:34:26.027Z,28.00
2019-04-14T01:36:56.120Z,27.93
2019-04-14T01:39:26.529Z,27.20
2019-04-14T01:41:56.430Z,28.53
2019-04-14T01:44:26.483Z,27.60
2019-04-14T01:46:56.599Z,28.43
2019-04-14T01:49:26.862Z,27.60
2019-04-14T01:52:27.465Z,28.00
2019-04-14T01:55:15.384Z,27.50
2019-04-14T01:57:55.255Z,27.80
2019-04-14T02:00:55.461Z,27.60
2019-04-14T02:03:25.962Z,27.07
2019-04-14T02:05:56.093Z,26.90
2019-04-14T02:08:26.264Z,27.63
2019-04-14T02:10:56.579Z,27.00
2019-04-14T02:13:26.807Z,26.37
2019-04-14T02:15:57.296Z,27.23
2019-04-14T02:18:27.272Z,27.37
2019-04-14T02:20:57.803Z,28.53
2019-04-14T02:23:27.968Z,28.70
2019-04-14T02:25:57.953Z,28.10
2019-04-14T02:28:28.783Z,28.33
2019-04-14T02:31:10.517Z,27.40
2019-04-14T02:33:54.051Z,26.03
2019-04-14T02:39:15.569Z,28.50
2019-04-14T02:41:43.561Z,28.87
2019-04-14T02:44:04.988Z,30.07
2019-04-14T02:46:40.050Z,29.50
2019-04-14T02:49:08.254Z,29.03
2019-04-14T02:54:08.695Z,28.37
2019-04-14T02:56:38.943Z,28.10
2019-04-14T03:01:38.798Z,28.50
2019-04-14T03:04:09.123Z,28.80
2019-04-14T03:06:41.430Z,28.57
2019-04-14T03:14:15.608Z,28.43
2019-04-14T03:17:14.334Z,28.63
2019-04-14T03:20:05.358Z,28.27
2019-04-14T03:22:43.985Z,29.13
2019-04-14T03:25:15.223Z,29.30
2019-04-14T03:28:06.978Z,29.23
2019-04-14T03:30:57.672Z,28.93
2019-04-14T03:43:09.911Z,29.23
2019-04-14T03:45:43.343Z,30.47
2019-04-14T03:48:45.036Z,30.40
2019-04-14T03:50:50.214Z,30.07
2019-04-14T03:53:17.514Z,30.00
2019-04-14T03:55:58.845Z,29.40
2019-04-14T03:58:24.654Z,29.10
2019-04-14T04:00:55.391Z,30.80
2019-04-14T04:03:25.960Z,30.00
2019-04-14T04:05:56.423Z,30.77
2019-04-14T04:08:26.705Z,31.10
2019-04-14T04:10:57.611Z,31.27
2019-04-14T04:13:28.081Z,30.23
2019-04-14T04:16:13.677Z,29.67
2019-04-14T04:18:50.936Z,31.37
2019-04-14T04:21:22.723Z,30.67
2019-04-14T04:24:02.257Z,30.70
2019-04-14T04:26:40.707Z,29.40
2019-04-14T04:29:16.468Z,30.03
2019-04-14T04:32:23.073Z,29.33
2019-04-14T04:35:06.963Z,30.73
2019-04-14T04:37:45.556Z,30.87
2019-04-14T04:40:24.705Z,30.10
2019-04-14T04:42:54.826Z,30.80
2019-04-14T04:45:24.202Z,31.47
2019-04-14T04:47:53.552Z,31.20
2019-04-14T04:50:23.883Z,30.57
2019-04-14T04:52:54.000Z,31.17
2019-04-14T04:55:24.179Z,31.20
2019-04-14T04:57:54.537Z,31.57
2019-04-14T05:00:24.451Z,30.97
2019-04-14T05:02:54.732Z,31.40
2019-04-14T05:06:00.438Z,31.97
2019-04-14T05:08:30.471Z,31.37
2019-04-14T05:11:10.264Z,32.07
2019-04-14T05:13:42.359Z,32.30
2019-04-14T05:16:12.794Z,33.47
2019-04-14T05:18:42.362Z,31.47
2019-04-14T05:21:12.689Z,34.07
2019-04-14T05:23:43.067Z,33.50
2019-04-14T05:26:13.444Z,33.20
2019-04-14T05:28:43.853Z,32.83
2019-04-14T05:31:14.310Z,34.73
2019-04-14T05:33:44.662Z,34.30
2019-04-14T05:36:15.038Z,33.40
2019-04-14T05:38:45.021Z,33.97
2019-04-14T05:41:15.847Z,34.83
2019-04-14T05:43:50.209Z,35.63
2019-04-14T05:46:16.409Z,35.57
2019-04-14T05:48:47.144Z,34.53
2019-04-14T05:51:19.894Z,35.83
2019-04-14T05:53:48.588Z,33.83
2019-04-14T05:56:18.624Z,35.03
2019-04-14T05:58:49.243Z,35.57
2019-04-14T06:01:18.639Z,35.13
2019-04-14T06:03:48.160Z,35.00
2019-04-14T06:06:17.425Z,34.30
2019-04-14T06:08:46.983Z,34.83
2019-04-14T06:11:16.344Z,35.70
2019-04-14T06:13:45.632Z,36.40
2019-04-14T06:16:14.900Z,35.77
2019-04-14T06:18:44.333Z,36.93
2019-04-14T06:21:13.855Z,36.67
2019-04-14T06:23:43.392Z,34.93
2019-04-14T06:26:12.688Z,35.80
2019-04-14T06:28:42.678Z,35.27
2019-04-14T06:31:24.427Z,35.00
2019-04-14T06:34:01.407Z,34.40
2019-04-14T06:36:51.594Z,34.33
2019-04-14T06:39:24.415Z,33.17
2019-04-14T06:41:53.691Z,34.43
2019-04-14T06:44:23.289Z,34.13
2019-04-14T06:46:52.579Z,34.80
2019-04-14T06:49:21.843Z,31.97
2019-04-14T06:51:51.365Z,30.73
2019-04-14T06:54:20.645Z,30.23
2019-04-14T06:56:49.980Z,31.23
2019-04-14T06:59:19.613Z,30.73
2019-04-14T07:01:48.896Z,31.37
2019-04-14T07:04:18.271Z,30.63
2019-04-14T07:06:47.688Z,28.57
2019-04-14T07:09:16.992Z,30.27
2019-04-14T07:11:47.047Z,28.50
2019-04-14T07:14:16.394Z,28.40
2019-04-14T07:16:46.032Z,26.77
2019-04-14T07:19:15.599Z,26.17
2019-04-14T07:21:45.229Z,26.50
2019-04-14T07:24:14.498Z,26.97
2019-04-14T07:26:43.767Z,26.70
2019-04-14T07:29:14.719Z,26.07
2019-04-14T07:32:09.210Z,26.17
2019-04-14T07:34:47.627Z,24.63
2019-04-14T07:37:26.705Z,25.43
2019-04-14T07:40:07.443Z,24.20
2019-04-14T07:42:55.688Z,23.43
2019-04-14T07:45:42.438Z,25.03
2019-04-14T07:48:30.735Z,24.43
2019-04-14T07:51:21.695Z,24.40
2019-04-14T07:53:54.315Z,25.07
2019-04-14T07:56:38.093Z,23.93
2019-04-14T07:59:29.461Z,25.17
2019-04-14T08:02:07.913Z,22.57
2019-04-14T08:04:41.472Z,24.10
2019-04-14T08:07:10.784Z,24.00
2019-04-14T08:09:40.051Z,24.47
2019-04-14T08:12:09.652Z,23.03
2019-04-14T08:14:39.265Z,22.23
2019-04-14T08:17:09.010Z,22.30
2019-04-14T08:19:38.624Z,23.23
2019-04-14T08:22:07.963Z,22.90
2019-04-14T08:24:37.531Z,21.60
2019-04-14T08:27:06.875Z,22.30
2019-04-14T08:29:36.208Z,22.50
2019-04-14T08:32:05.654Z,22.17
2019-04-14T08:34:36.793Z,20.83
2019-04-14T08:37:06.067Z,21.90
2019-04-14T08:39:38.067Z,21.67
2019-04-14T08:42:16.100Z,21.20
2019-04-14T08:44:47.262Z,20.57
2019-04-14T08:47:35.793Z,21.33
2019-04-14T08:50:39.381Z,19.80
2019-04-14T08:53:19.741Z,20.73
2019-04-14T08:56:07.959Z,20.30
2019-04-14T08:58:59.688Z,19.90
2019-04-14T09:01:37.252Z,19.83
2019-04-14T09:04:20.656Z,20.03
2019-04-14T09:07:18.192Z,19.30
2019-04-14T09:09:51.877Z,21.07
2019-04-14T09:12:24.671Z,19.37
2019-04-14T09:14:57.267Z,19.10
2019-04-14T09:17:26.324Z,20.77
2019-04-14T09:19:56.055Z,19.87
2019-04-14T09:22:25.619Z,19.83
2019-04-14T09:24:54.894Z,21.27
2019-04-14T09:27:24.200Z,21.27
2019-04-14T09:29:53.667Z,19.60
2019-04-14T09:32:23.400Z,19.20
2019-04-14T09:34:52.979Z,18.70
2019-04-14T09:37:22.226Z,18.93
2019-04-14T09:39:51.574Z,19.93
2019-04-14T09:42:21.176Z,19.23
2019-04-14T09:44:50.504Z,18.80
2019-04-14T09:47:20.418Z,18.37
2019-04-14T09:49:49.674Z,17.90
2019-04-14T09:52:19.064Z,19.00
2019-04-14T09:54:48.356Z,18.90
2019-04-14T09:57:17.932Z,19.00
2019-04-14T09:59:47.202Z,18.80
2019-04-14T10:02:16.456Z,19.43
2019-04-14T10:04:46.076Z,18.00
2019-04-14T10:07:15.345Z,18.90
2019-04-14T10:09:44.715Z,17.73
2019-04-14T10:12:14.065Z,17.80
2019-04-14T10:14:43.677Z,19.07
2019-04-14T10:17:12.931Z,18.50
2019-04-14T10:19:42.524Z,18.93
2019-04-14T10:22:11.843Z,18.67
2019-04-14T10:24:41.420Z,18.43
2019-04-14T10:27:10.987Z,18.87
2019-04-14T10:29:40.292Z,17.13
2019-04-14T10:32:09.583Z,17.80
2019-04-14T10:34:38.872Z,16.30
2019-04-14T10:37:08.235Z,16.53
2019-04-14T10:39:37.891Z,17.40
2019-04-14T10:42:07.652Z,16.43
2019-04-14T10:44:37.487Z,15.43
2019-04-14T10:47:06.764Z,15.63
2019-04-14T10:49:36.346Z,15.20
2019-04-14T10:52:05.606Z,15.03
2019-04-14T10:54:34.923Z,15.37
2019-04-14T10:57:04.267Z,14.47
2019-04-14T10:59:33.572Z,13.73
2019-04-14T11:02:02.837Z,14.33
2019-04-14T11:04:32.132Z,13.13
2019-04-14T11:07:07.130Z,13.30
2019-04-14T11:09:38.471Z,15.10
2019-04-14T11:12:08.095Z,14.77
2019-04-14T11:14:42.093Z,13.27
2019-04-14T11:17:11.607Z,13.23
2019-04-14T11:19:40.901Z,13.70
2019-04-14T11:22:10.806Z,13.47
2019-04-14T11:24:40.364Z,14.07
2019-04-14T11:27:09.653Z,13.83
2019-04-14T11:29:39.173Z,14.80
2019-04-14T11:32:34.403Z,14.73
2019-04-14T11:35:21.303Z,14.37
2019-04-14T11:38:15.763Z,14.27
2019-04-14T11:40:48.068Z,13.77
2019-04-14T11:43:17.633Z,14.77
2019-04-14T11:45:47.032Z,13.73
2019-04-14T11:48:16.631Z,16.17
2019-04-14T11:50:45.979Z,14.30
2019-04-14T11:53:15.277Z,14.80
2019-04-14T11:55:44.633Z,13.97
2019-04-14T11:58:14.197Z,13.50
2019-04-14T12:01:05.530Z,13.17
2019-04-14T12:03:54.240Z,13.53
2019-04-14T12:06:48.551Z,12.97
2019-04-14T12:09:21.091Z,12.50
2019-04-14T12:11:50.910Z,12.70
2019-04-14T12:14:23.451Z,12.53
2019-04-14T12:16:52.786Z,12.17
2019-04-14T12:19:22.644Z,12.53
2019-04-14T12:21:52.040Z,12.37
2019-04-14T12:24:21.586Z,12.80
2019-04-14T12:26:50.899Z,12.03
2019-04-14T12:29:21.433Z,12.40
2019-04-14T12:31:51.047Z,12.23
2019-04-14T12:34:21.001Z,12.97
2019-04-14T12:36:50.581Z,12.37
2019-04-14T12:39:23.242Z,11.10
2019-04-14T12:42:06.037Z,12.80
2019-04-14T12:45:04.004Z,11.80
2019-04-14T12:47:50.823Z,11.77
2019-04-14T12:50:26.727Z,12.60
2019-04-14T12:52:56.586Z,12.33
2019-04-14T12:55:25.994Z,12.13
2019-04-14T12:57:58.250Z,12.97
2019-04-14T13:00:34.326Z,12.63
2019-04-14T13:03:03.849Z,13.43
2019-04-14T13:05:33.144Z,12.73
2019-04-14T13:08:02.735Z,12.67
2019-04-14T13:10:32.095Z,12.70
2019-04-14T13:13:01.352Z,14.07
2019-04-14T13:15:30.662Z,13.80
2019-04-14T13:18:00.007Z,14.03
2019-04-14T13:20:29.543Z,14.13
2019-04-14T13:22:58.817Z,14.47
2019-04-14T13:25:28.397Z,13.87
2019-04-14T13:27:57.654Z,13.57
2019-04-14T13:30:30.430Z,13.53
2019-04-14T13:32:59.823Z,14.40
2019-04-14T13:35:29.395Z,13.30
2019-04-14T13:37:59.433Z,14.13
2019-04-14T13:40:28.976Z,14.10
2019-04-14T13:42:58.402Z,14.47
2019-04-14T13:45:27.655Z,13.77
2019-04-14T13:47:56.984Z,14.67
2019-04-14T13:50:26.264Z,13.47
2019-04-14T13:52:55.827Z,13.90
2019-04-14T13:55:25.135Z,14.23
2019-04-14T13:57:54.797Z,13.13
2019-04-14T14:00:24.636Z,13.80
2019-04-14T14:02:54.206Z,14.37
2019-04-14T14:05:23.998Z,13.93
2019-04-14T14:07:53.556Z,13.13
2019-04-14T14:10:22.839Z,12.97
2019-04-14T14:13:04.719Z,14.03
2019-04-14T14:15:59.399Z,14.03
2019-04-14T14:18:40.160Z,13.33
2019-04-14T14:21:47.143Z,13.43
2019-04-14T14:24:50.672Z,13.33
2019-04-14T14:27:19.954Z,13.90
2019-04-14T14:29:49.237Z,13.27
2019-04-14T14:32:33.512Z,12.60
2019-04-14T14:35:03.071Z,12.97
2019-04-14T14:37:32.704Z,14.03
2019-04-14T14:40:01.980Z,13.60
2019-04-14T14:42:31.808Z,14.40
2019-04-14T14:45:20.048Z,13.57
2019-04-14T14:48:01.858Z,13.13
2019-04-14T14:50:41.928Z,14.23
2019-04-14T14:53:12.286Z,14.03
2019-04-14T14:55:42.223Z,14.60
2019-04-14T14:58:11.531Z,14.37
2019-04-14T15:00:41.276Z,14.33
2019-04-14T15:03:10.893Z,14.63
2019-04-14T15:05:40.611Z,14.20
2019-04-14T15:08:10.367Z,14.10
2019-04-14T15:10:39.928Z,13.70
2019-04-14T15:13:09.312Z,14.40
2019-04-14T15:15:38.623Z,14.23
2019-04-14T15:18:08.207Z,14.33
2019-04-14T15:20:38.216Z,15.30
2019-04-14T15:23:08.067Z,14.40
2019-04-14T15:25:37.347Z,14.27
2019-04-14T15:28:06.939Z,13.93
2019-04-14T15:30:36.466Z,13.67
2019-04-14T15:33:05.822Z,13.60
2019-04-14T15:35:35.231Z,12.93
2019-04-14T15:38:04.852Z,14.07
2019-04-14T15:40:34.215Z,12.97
2019-04-14T15:43:03.852Z,14.17
2019-04-14T15:45:33.124Z,13.33
2019-04-14T15:48:02.693Z,13.00
2019-04-14T15:50:32.276Z,13.67
2019-04-14T15:53:01.802Z,13.60
2019-04-14T15:55:31.339Z,13.63
2019-04-14T15:58:19.592Z,14.30
2019-04-14T16:01:17.370Z,13.10
2019-04-14T16:04:05.699Z,13.07
2019-04-14T16:07:06.371Z,14.57
2019-04-14T16:10:06.847Z,13.50
2019-04-14T16:12:55.623Z,13.63
2019-04-14T16:15:31.102Z,14.20
2019-04-14T16:18:28.959Z,14.20
2019-04-14T16:20:58.249Z,13.60
2019-04-14T16:23:27.831Z,14.30
2019-04-14T16:26:06.197Z,14.77
2019-04-14T16:28:54.459Z,14.00
2019-04-14T16:32:04.567Z,13.57
2019-04-14T16:34:52.870Z,14.07
2019-04-14T16:37:22.617Z,14.50
2019-04-14T16:39:52.191Z,13.93
2019-04-14T16:42:21.525Z,14.40
2019-04-14T16:44:53.725Z,14.13
2019-04-14T16:47:23.316Z,15.17
2019-04-14T16:49:55.617Z,13.30
2019-04-14T16:52:44.400Z,13.53
2019-04-14T16:55:44.756Z,14.57
2019-04-14T16:58:19.401Z,13.60
2019-04-14T17:01:04.352Z,14.00
2019-04-14T17:03:33.720Z,14.87
2019-04-14T17:06:03.169Z,14.57
2019-04-14T17:08:32.820Z,14.40
2019-04-14T17:11:02.478Z,14.60
2019-04-14T17:13:34.662Z,14.30
2019-04-14T17:16:38.413Z,13.67
2019-04-14T17:19:21.864Z,13.57
2019-04-14T17:22:00.084Z,14.67
2019-04-14T17:24:48.295Z,13.30
2019-04-14T17:27:45.565Z,13.90
2019-04-14T17:30:33.012Z,13.77
2019-04-14T17:33:21.255Z,14.43
2019-04-14T17:36:18.550Z,14.57
2019-04-14T17:39:10.285Z,13.77
2019-04-14T17:41:47.855Z,13.33
2019-04-14T17:44:31.984Z,12.83
2019-04-14T17:47:13.235Z,12.20
2019-04-14T17:50:00.808Z,12.13
2019-04-14T17:52:45.378Z,11.23
2019-04-14T17:55:20.533Z,12.43
2019-04-14T17:57:54.644Z,11.97
2019-04-14T18:00:40.914Z,13.23
2019-04-14T18:03:21.692Z,12.73
2019-04-14T18:05:54.178Z,13.53
2019-04-14T18:08:33.715Z,12.90
2019-04-14T18:11:08.717Z,13.90
2019-04-14T18:13:57.001Z,14.07
2019-04-14T18:16:33.806Z,14.17
2019-04-14T18:19:16.410Z,14.00
2019-04-14T18:21:45.724Z,13.93
2019-04-14T18:24:15.285Z,13.73
2019-04-14T18:26:44.816Z,13.43
2019-04-14T18:29:30.876Z,15.17
2019-04-14T18:32:26.109Z,14.70
2019-04-14T18:35:04.261Z,15.63
2019-04-14T18:37:52.500Z,14.83
2019-04-14T18:40:26.220Z,14.07
2019-04-14T18:43:26.281Z,14.47
2019-04-14T18:46:03.271Z,14.47
2019-04-14T18:48:36.951Z,14.10
2019-04-14T18:51:17.314Z,15.67
2019-04-14T18:54:17.817Z,14.00
2019-04-14T18:57:04.915Z,13.70
2019-04-14T19:00:11.452Z,14.10
2019-04-14T19:02:40.794Z,14.70
2019-04-14T19:05:10.724Z,15.13
2019-04-14T19:07:40.291Z,14.93
2019-04-14T19:10:09.762Z,15.17
2019-04-14T19:13:04.052Z,15.13
2019-04-14T19:15:58.380Z,14.83
2019-04-14T19:18:30.800Z,15.23
2019-04-14T19:21:06.638Z,14.57
2019-04-14T19:23:35.919Z,15.07
2019-04-14T19:26:05.560Z,15.07
2019-04-14T19:28:35.078Z,14.67
2019-04-14T19:31:04.640Z,14.40
2019-04-14T19:33:33.988Z,14.00
2019-04-14T19:36:03.391Z,13.40
2019-04-14T19:38:32.954Z,13.53
2019-04-14T19:41:02.475Z,13.73
2019-04-14T19:43:31.787Z,14.27
2019-04-14T19:46:01.403Z,11.83
2019-04-14T19:48:30.924Z,12.47
2019-04-14T19:51:00.572Z,13.03
2019-04-14T19:53:30.201Z,12.43
2019-04-14T19:55:59.478Z,11.33
2019-04-14T19:58:29.234Z,12.07
2019-04-14T20:00:59.071Z,11.07
2019-04-14T20:03:28.628Z,11.50
2019-04-14T20:05:57.922Z,11.47
2019-04-14T20:08:27.476Z,12.90
2019-04-14T20:10:57.175Z,11.87
2019-04-14T20:13:28.267Z,11.87
2019-04-14T20:16:23.059Z,11.90
2019-04-14T20:19:23.607Z,12.43
2019-04-14T20:22:17.687Z,12.17
2019-04-14T20:24:51.449Z,11.77
2019-04-14T20:27:45.845Z,12.37
2019-04-14T20:30:22.899Z,12.47
2019-04-14T20:32:52.171Z,11.17
2019-04-14T20:35:21.612Z,12.67
2019-04-14T20:37:51.718Z,11.83
2019-04-14T20:40:21.263Z,12.03
2019-04-14T20:42:50.550Z,12.00
2019-04-14T20:45:20.082Z,12.37
2019-04-14T20:47:49.640Z,12.67
2019-04-14T20:50:19.175Z,11.73
2019-04-14T20:52:48.528Z,11.70
2019-04-14T20:55:18.139Z,12.43
2019-04-14T20:57:47.758Z,11.77
2019-04-14T21:00:20.806Z,12.70
2019-04-14T21:03:09.656Z,13.07
2019-04-14T21:05:56.899Z,11.53
2019-04-14T21:08:44.582Z,12.50
2019-04-14T21:11:20.778Z,11.63
2019-04-14T21:14:04.756Z,11.53
2019-04-14T21:16:47.384Z,14.17
2019-04-14T21:19:23.602Z,12.70
2019-04-14T21:22:14.903Z,11.47
2019-04-14T21:24:48.598Z,11.40
2019-04-14T21:27:23.654Z,11.70
2019-04-14T21:30:11.894Z,11.83
2019-04-14T21:32:46.667Z,11.83
2019-04-14T21:35:41.563Z,10.73
2019-04-14T21:38:27.871Z,11.27
2019-04-14T21:41:04.807Z,10.53
2019-04-14T21:43:34.371Z,10.27
2019-04-14T21:46:03.696Z,10.27
2019-04-14T21:48:33.281Z,10.93
2019-04-14T21:51:02.567Z,10.77
2019-04-14T21:53:31.827Z,10.57
2019-04-14T21:56:12.867Z,10.60
2019-04-14T21:58:42.760Z,10.30
2019-04-14T22:01:54.703Z,10.47
2019-04-14T22:04:43.138Z,11.30
2019-04-14T22:07:32.278Z,11.20
2019-04-14T22:10:10.547Z,10.87
2019-04-14T22:12:42.457Z,10.70
2019-04-14T22:15:14.591Z,11.73
2019-04-14T22:17:46.776Z,11.17
2019-04-14T22:20:16.263Z,10.70
2019-04-14T22:22:45.536Z,13.30
2019-04-14T22:25:15.197Z,12.73
2019-04-14T22:27:44.479Z,11.27
2019-04-14T22:30:17.022Z,11.10
2019-04-14T22:32:49.370Z,11.37
2019-04-14T22:35:18.760Z,11.47
2019-04-14T22:37:48.048Z,11.70
2019-04-14T22:40:17.361Z,12.03
2019-04-14T22:42:46.998Z,11.37
2019-04-14T22:45:16.303Z,10.37
2019-04-14T22:47:46.505Z,10.57
2019-04-14T22:50:23.369Z,10.90
2019-04-14T22:52:53.036Z,11.03
2019-04-14T22:55:22.373Z,10.47
2019-04-14T22:57:51.695Z,10.37
2019-04-14T23:00:40.276Z,9.83
2019-04-14T23:03:38.127Z,10.07
2019-04-14T23:06:29.923Z,10.20
2019-04-14T23:09:17.082Z,10.03
2019-04-14T23:11:53.589Z,8.87
2019-04-14T23:14:35.303Z,9.77
2019-04-14T23:17:24.276Z,9.10
2019-04-14T23:20:23.076Z,8.10
2019-04-14T23:23:09.978Z,8.20
2019-04-14T23:25:39.484Z,7.90
2019-04-14T23:28:11.848Z,7.33
2019-04-14T23:30:41.220Z,7.30
2019-04-14T23:33:13.679Z,7.17
2019-04-14T23:35:43.177Z,7.77
2019-04-14T23:38:12.987Z,8.00
2019-04-14T23:40:42.573Z,7.97
2019-04-14T23:43:12.311Z,8.80
2019-04-14T23:45:41.602Z,9.03
2019-04-14T23:48:11.472Z,8.67
2019-04-14T23:50:40.882Z,9.70
2019-04-14T23:53:10.644Z,8.90
2019-04-14T23:55:40.304Z,8.60
2019-04-14T23:58:36.696Z,8.13
